Time;durP1;ratioP1;P1;durP2;ratioP2;P2;SDS_P1;SDS_P2;PMS_P1;PMS_P2;Temp;Humidity;BMP_temperature;BMP_pressure;BME280_temperature;BME280_humidity;BME280_pressure;Samples;Min_cycle;Max_cycle;Signal;HPM_P1;HPM_P2
2022/02/24 00:00:12;;;;;;;10.65;2.78;;;;;;;2.96;57.53;94425.88;5064225;28;20021;-72
2022/02/24 00:02:37;;;;;;;10.25;3.97;;;;;;;2.98;57.59;94423.78;5064353;28;20041;-71
2022/02/24 00:05:03;;;;;;;14.00;3.58;;;;;;;3.01;58.13;94425.09;5064356;28;20023;-72
2022/02/24 00:07:28;;;;;;;11.65;2.90;;;;;;;3.12;58.46;94436.53;5064324;28;20327;-71
2022/02/24 00:09:54;;;;;;;11.13;3.15;;;;;;;3.09;57.74;94424.63;5064198;28;20303;-72
2022/02/24 00:12:19;;;;;;;7.40;2.97;;;;;;;3.01;57.56;94418.00;5063948;28;20049;-72
2022/02/24 00:14:45;;;;;;;7.70;2.65;;;;;;;3.12;57.92;94426.00;5064145;28;20222;-72
2022/02/24 00:17:11;;;;;;;18.45;3.00;;;;;;;3.12;57.55;94423.38;5064028;28;20079;-72
2022/02/24 00:19:37;;;;;;;7.72;3.22;;;;;;;3.09;57.64;94414.09;5064098;28;20028;-71
2022/02/24 00:22:03;;;;;;;15.25;3.20;;;;;;;3.00;57.86;94419.06;5064055;28;20029;-71
2022/02/24 00:24:28;;;;;;;12.82;2.58;;;;;;;3.00;58.06;94420.91;5063956;28;20028;-71
2022/02/24 00:26:54;;;;;;;11.38;3.78;;;;;;;2.99;57.94;94412.22;5063635;28;20091;-71
2022/02/24 00:29:19;;;;;;;15.23;4.18;;;;;;;2.97;58.50;94419.56;5063800;28;20223;-71
2022/02/24 00:31:45;;;;;;;12.43;2.88;;;;;;;3.03;58.20;94419.59;5063808;28;20020;-71
2022/02/24 00:34:10;;;;;;;11.27;4.07;;;;;;;3.04;58.37;94413.28;5063656;28;20025;-70
2022/02/24 00:36:36;;;;;;;10.90;2.67;;;;;;;2.96;57.79;94410.06;5063665;28;20044;-70
2022/02/24 00:39:02;;;;;;;8.32;2.88;;;;;;;3.01;58.27;94402.22;5062584;28;20256;-70
2022/02/24 00:41:28;;;;;;;10.73;3.13;;;;;;;2.90;57.91;94405.00;5063666;28;20100;-70
2022/02/24 00:43:53;;;;;;;10.95;3.33;;;;;;;2.80;58.60;94405.72;5063590;28;20021;-71
2022/02/24 00:46:18;;;;;;;12.02;3.08;;;;;;;2.66;58.35;94394.00;5063553;28;20227;-71
2022/02/24 00:48:44;;;;;;;8.70;3.13;;;;;;;2.60;58.99;94393.97;5063223;28;20335;-71
2022/02/24 00:51:09;;;;;;;8.30;3.00;;;;;;;2.67;59.01;94396.41;5063381;28;20028;-71
2022/02/24 00:53:35;;;;;;;11.52;3.50;;;;;;;2.53;58.91;94393.38;5063538;28;20029;-71
2022/02/24 00:56:01;;;;;;;10.52;2.78;;;;;;;2.47;59.11;94397.00;5063189;28;20021;-71
2022/02/24 00:58:26;;;;;;;9.40;2.90;;;;;;;2.53;59.11;94384.69;5063405;28;20025;-71
2022/02/24 01:00:53;;;;;;;9.68;2.67;;;;;;;2.39;59.10;94392.19;5063351;28;20044;-71
2022/02/24 01:03:18;;;;;;;11.00;2.50;;;;;;;2.37;59.59;94391.66;5063241;28;20031;-72
2022/02/24 01:05:44;;;;;;;11.55;3.25;;;;;;;2.28;59.84;94395.75;5063120;28;20029;-71
2022/02/24 01:08:09;;;;;;;14.98;3.20;;;;;;;2.25;59.80;94391.78;5063064;28;20036;-70
2022/02/24 01:10:34;;;;;;;10.30;3.35;;;;;;;2.19;60.13;94395.41;5063056;28;20032;-69
2022/02/24 01:13:00;;;;;;;8.35;2.83;;;;;;;2.12;59.83;94394.81;5062828;28;20037;-70
2022/02/24 01:15:25;;;;;;;8.75;3.15;;;;;;;2.05;59.95;94396.84;5062992;28;20331;-69
2022/02/24 01:17:51;;;;;;;11.23;3.08;;;;;;;1.96;60.63;94389.38;5063021;28;20028;-69
2022/02/24 01:20:17;;;;;;;7.68;2.85;;;;;;;1.93;60.69;94387.22;5062958;28;20049;-69
2022/02/24 01:22:43;;;;;;;7.72;2.53;;;;;;;1.90;60.81;94389.56;5062822;28;20079;-70
2022/02/24 01:25:08;;;;;;;5.43;2.78;;;;;;;1.84;60.99;94393.19;5062939;28;20251;-70
2022/02/24 01:27:34;;;;;;;12.38;3.13;;;;;;;1.80;60.89;94393.66;5062841;28;20017;-70
2022/02/24 01:29:59;;;;;;;8.25;2.97;;;;;;;1.76;60.73;94397.81;5062738;28;20024;-70
2022/02/24 01:32:25;;;;;;;12.07;3.80;;;;;;;1.75;60.97;94387.53;5062648;28;20020;-71
2022/02/24 01:34:58;;;;;;;9.75;2.55;;;;;;;1.64;61.05;94391.88;5062748;28;20396;-70
2022/02/24 01:37:24;;;;;;;10.88;2.97;;;;;;;1.66;60.44;94368.78;5062681;28;20266;-71
2022/02/24 01:39:50;;;;;;;9.13;3.28;;;;;;;1.69;60.35;94380.63;5062324;28;20078;-70
2022/02/24 01:42:15;;;;;;;11.57;2.85;;;;;;;1.70;60.17;94382.25;5062750;28;20374;-70
2022/02/24 01:44:43;;;;;;;8.27;2.45;;;;;;;1.69;59.70;94376.19;5062511;28;20315;-70
2022/02/24 01:47:09;;;;;;;8.75;2.13;;;;;;;1.67;59.57;94374.81;5062461;28;20425;-70
2022/02/24 01:49:34;;;;;;;8.93;2.40;;;;;;;1.70;58.87;94367.25;5062432;28;20029;-70
2022/02/24 01:52:01;;;;;;;16.60;2.15;;;;;;;1.72;58.84;94380.94;5062654;28;20032;-70
2022/02/24 01:54:26;;;;;;;12.48;2.42;;;;;;;1.71;58.89;94371.50;5062458;28;20025;-70
2022/02/24 01:56:52;;;;;;;6.15;2.08;;;;;;;1.69;59.20;94368.31;5062651;28;20020;-70
2022/02/24 01:59:17;;;;;;;12.52;2.40;;;;;;;1.69;58.92;94370.94;5062579;28;20036;-70
2022/02/24 02:01:43;;;;;;;9.38;2.88;;;;;;;1.68;58.93;94379.84;5062454;28;20084;-71
2022/02/24 02:04:09;;;;;;;7.70;2.95;;;;;;;1.74;58.88;94375.44;5062594;28;20079;-71
2022/02/24 02:06:37;;;;;;;8.32;2.65;;;;;;;1.75;58.77;94379.66;5062724;28;20028;-71
2022/02/24 02:09:03;;;;;;;7.25;1.98;;;;;;;1.75;58.67;94383.09;5062224;28;20092;-71
2022/02/24 02:11:28;;;;;;;10.90;3.17;;;;;;;1.71;59.03;94368.88;5062315;28;20041;-71
2022/02/24 02:13:54;;;;;;;6.28;2.28;;;;;;;1.65;59.05;94384.78;5062392;28;20033;-71
2022/02/24 02:16:19;;;;;;;10.57;2.20;;;;;;;1.65;58.90;94398.75;5062150;28;20048;-71
2022/02/24 02:18:44;;;;;;;8.85;2.17;;;;;;;1.65;58.28;94390.03;5062426;28;20025;-71
2022/02/24 02:21:10;;;;;;;5.80;2.30;;;;;;;1.56;59.11;94387.06;5062331;28;20016;-71
2022/02/24 02:23:35;;;;;;;6.90;2.53;;;;;;;1.58;58.68;94411.25;5062569;28;20021;-71
2022/02/24 02:26:01;;;;;;;11.60;2.10;;;;;;;1.61;58.88;94389.75;5062298;28;20090;-71
2022/02/24 02:28:26;;;;;;;7.80;2.10;;;;;;;1.51;59.65;94387.00;5062249;28;20024;-71
2022/02/24 02:30:52;;;;;;;3.85;2.00;;;;;;;1.52;59.59;94384.09;5061956;28;20044;-71
2022/02/24 02:33:17;;;;;;;4.70;2.45;;;;;;;1.51;59.24;94397.50;5062292;28;20025;-71
2022/02/24 02:35:43;;;;;;;13.27;2.92;;;;;;;1.54;58.49;94404.91;5062298;28;20313;-71
2022/02/24 02:38:08;;;;;;;11.10;3.10;;;;;;;1.51;58.29;94397.50;5062260;28;20374;-71
2022/02/24 02:40:39;;;;;;;5.63;1.90;;;;;;;1.48;58.44;94404.03;5060988;28;20226;-72
2022/02/24 02:43:08;;;;;;;9.05;2.78;;;;;;;1.52;58.26;94393.84;5062248;28;20029;-72
2022/02/24 02:45:36;;;;;;;10.98;2.47;;;;;;;1.51;58.30;94392.25;5060960;28;20329;-72
2022/02/24 02:48:02;;;;;;;8.88;2.05;;;;;;;1.54;57.71;94407.53;5062122;28;20020;-72
2022/02/24 02:50:28;;;;;;;8.30;2.50;;;;;;;1.58;57.46;94404.16;5064194;28;20066;-71
2022/02/24 02:52:54;;;;;;;7.03;2.33;;;;;;;1.58;57.16;94409.41;5064474;28;20021;-72
2022/02/24 02:55:20;;;;;;;5.43;1.80;;;;;;;1.56;56.88;94414.13;5065707;28;20025;-71
2022/02/24 02:57:47;;;;;;;7.88;2.13;;;;;;;1.58;57.00;94412.03;5065343;28;20315;-71
2022/02/24 03:00:14;;;;;;;5.88;2.25;;;;;;;1.63;57.15;94421.84;5065471;28;20101;-71
2022/02/24 03:02:40;;;;;;;3.65;1.95;;;;;;;1.63;57.12;94411.34;5065597;28;20196;-71
2022/02/24 03:05:06;;;;;;;3.55;1.92;;;;;;;1.59;56.32;94418.13;5065528;28;20079;-71
2022/02/24 03:07:32;;;;;;;8.80;3.00;;;;;;;1.56;57.00;94419.38;5065474;28;20033;-71
2022/02/24 03:09:57;;;;;;;5.13;1.50;;;;;;;1.55;56.72;94411.75;5064196;28;20037;-71
2022/02/24 03:12:23;;;;;;;8.57;2.03;;;;;;;1.62;56.48;94422.06;5065011;28;20053;-71
2022/02/24 03:14:48;;;;;;;6.38;2.20;;;;;;;1.55;56.88;94430.16;5065198;28;20029;-70
2022/02/24 03:17:14;;;;;;;8.25;2.20;;;;;;;1.51;57.33;94421.16;5064003;28;20036;-70
2022/02/24 03:19:40;;;;;;;6.38;2.28;;;;;;;1.47;57.02;94425.31;5065236;28;20032;-70
2022/02/24 03:22:08;;;;;;;3.67;1.60;;;;;;;1.40;57.35;94425.47;5065186;28;20029;-71
2022/02/24 03:24:33;;;;;;;7.38;2.70;;;;;;;1.34;58.06;94436.94;5065085;28;20029;-71
2022/02/24 03:26:59;;;;;;;5.90;1.77;;;;;;;1.38;58.25;94438.84;5064963;28;20063;-70
2022/02/24 03:29:24;;;;;;;11.10;2.97;;;;;;;1.39;58.52;94444.91;5064919;28;20029;-70
2022/02/24 03:31:50;;;;;;;8.85;2.70;;;;;;;1.40;59.01;94438.59;5064967;28;20106;-70
2022/02/24 03:34:15;;;;;;;8.70;2.95;;;;;;;1.36;59.10;94447.97;5064838;28;20016;-70
2022/02/24 03:36:41;;;;;;;6.80;1.88;;;;;;;1.37;58.92;94447.75;5065166;28;20020;-70
2022/02/24 03:39:06;;;;;;;7.78;2.50;;;;;;;1.35;58.80;94449.81;5064692;28;20330;-70
2022/02/24 03:41:32;;;;;;;11.43;2.38;;;;;;;1.36;58.85;94450.63;5064817;28;20223;-71
2022/02/24 03:43:58;;;;;;;15.52;2.83;;;;;;;1.37;58.56;94458.25;5064649;28;20092;-71
2022/02/24 03:46:23;;;;;;;8.48;2.22;;;;;;;1.39;58.36;94448.31;5064667;28;20021;-71
2022/02/24 03:48:49;;;;;;;5.55;2.53;;;;;;;1.44;57.99;94459.91;5064649;28;20024;-71
2022/02/24 03:51:15;;;;;;;8.57;2.22;;;;;;;1.43;58.55;94463.59;5064565;28;20044;-71
2022/02/24 03:53:41;;;;;;;15.00;3.17;;;;;;;1.39;58.05;94460.66;5064561;28;20024;-71
2022/02/24 03:56:07;;;;;;;9.63;2.35;;;;;;;1.42;58.38;94464.63;5064595;28;20032;-71
2022/02/24 03:58:32;;;;;;;13.73;2.50;;;;;;;1.47;57.86;94462.88;5064346;28;20033;-71
2022/02/24 04:00:58;;;;;;;10.35;2.30;;;;;;;1.42;56.87;94459.38;5063663;28;20067;-71
2022/02/24 04:03:24;;;;;;;4.47;1.60;;;;;;;1.46;56.93;94466.53;5064317;28;20067;-71
2022/02/24 04:05:50;;;;;;;12.52;1.90;;;;;;;1.54;55.95;94457.44;5064375;28;20378;-71
2022/02/24 04:08:16;;;;;;;4.30;1.67;;;;;;;1.59;56.25;94466.19;5064235;28;20096;-71
2022/02/24 04:10:41;;;;;;;7.88;1.83;;;;;;;1.67;56.24;94458.91;5064274;28;20021;-70
2022/02/24 04:13:07;;;;;;;8.43;2.17;;;;;;;1.69;55.30;94462.91;5063972;28;20331;-71
2022/02/24 04:15:32;;;;;;;7.78;1.92;;;;;;;1.76;54.69;94462.75;5064072;28;20395;-71
2022/02/24 04:17:57;;;;;;;6.07;1.63;;;;;;;1.83;54.55;94462.56;5064088;28;20017;-71
2022/02/24 04:20:23;;;;;;;14.95;2.40;;;;;;;1.91;54.16;94472.66;5064068;28;20020;-70
2022/02/24 04:22:48;;;;;;;3.63;1.42;;;;;;;1.90;54.12;94466.59;5063682;28;20028;-71
2022/02/24 04:25:15;;;;;;;5.43;1.98;;;;;;;1.87;54.10;94461.81;5063982;28;20096;-71
2022/02/24 04:27:45;;;;;;;7.07;1.55;;;;;;;1.99;53.71;94474.84;5063961;28;20013;-71
2022/02/24 04:30:11;;;;;;;5.70;1.75;;;;;;;1.95;53.36;94469.28;5063979;28;20044;-70
2022/02/24 04:32:36;;;;;;;10.57;4.47;;;;;;;1.98;53.44;94473.28;5063737;28;20017;-70
2022/02/24 04:35:02;;;;;;;5.72;1.48;;;;;;;1.96;53.15;94465.63;5063850;28;20013;-70
2022/02/24 04:37:27;;;;;;;4.10;1.60;;;;;;;1.95;53.58;94474.53;5063493;28;20320;-71
2022/02/24 04:39:53;;;;;;;6.88;1.67;;;;;;;1.94;53.79;94472.97;5063676;28;20013;-70
2022/02/24 04:42:18;;;;;;;5.72;1.70;;;;;;;1.94;53.38;94469.53;5063509;28;20311;-71
2022/02/24 04:44:43;;;;;;;4.05;1.98;;;;;;;1.91;53.89;94475.28;5063636;28;20028;-70
2022/02/24 04:47:09;;;;;;;3.63;1.65;;;;;;;1.91;54.40;94481.31;5063609;28;20040;-70
2022/02/24 04:49:34;;;;;;;8.82;1.80;;;;;;;1.93;54.41;94481.88;5063449;28;20017;-71
2022/02/24 04:52:00;;;;;;;6.07;1.70;;;;;;;1.93;54.61;94479.25;5063106;28;20017;-71
2022/02/24 04:54:25;;;;;;;3.88;1.30;;;;;;;1.91;53.55;94489.22;5063457;28;20021;-71
2022/02/24 04:56:51;;;;;;;6.68;1.75;;;;;;;1.92;53.71;94482.94;5063282;28;20025;-71
2022/02/24 04:59:16;;;;;;;6.47;1.90;;;;;;;1.94;53.88;94490.56;5063230;28;20035;-71
2022/02/24 05:01:42;;;;;;;6.10;1.50;;;;;;;1.88;54.21;94494.19;5063224;28;20036;-71
2022/02/24 05:04:07;;;;;;;6.20;2.28;;;;;;;1.85;54.21;94497.28;5063102;28;20211;-71
2022/02/24 05:06:33;;;;;;;7.05;2.03;;;;;;;1.86;54.64;94510.19;5063054;28;20104;-71
2022/02/24 05:08:58;;;;;;;4.47;1.70;;;;;;;1.92;54.82;94506.59;5063014;28;20016;-71
2022/02/24 05:11:24;;;;;;;7.57;2.25;;;;;;;2.01;54.07;94509.59;5062946;28;20017;-71
2022/02/24 05:13:50;;;;;;;5.00;2.03;;;;;;;2.03;54.18;94509.34;5062978;28;20021;-71
2022/02/24 05:16:15;;;;;;;6.72;1.70;;;;;;;2.03;54.28;94517.25;5063108;28;20036;-71
2022/02/24 05:18:40;;;;;;;7.03;2.28;;;;;;;1.99;54.41;94519.53;5063152;28;20210;-71
2022/02/24 05:21:06;;;;;;;6.38;2.30;;;;;;;2.02;54.18;94516.44;5062827;28;20017;-71
2022/02/24 05:23:31;;;;;;;9.55;2.40;;;;;;;1.99;54.73;94523.00;5061461;28;20025;-71
2022/02/24 05:25:57;;;;;;;7.18;1.70;;;;;;;2.08;54.85;94525.22;5062667;28;20025;-71
2022/02/24 05:28:22;;;;;;;11.85;2.47;;;;;;;2.01;54.80;94522.72;5062635;28;20040;-71
2022/02/24 05:30:48;;;;;;;4.95;1.80;;;;;;;2.07;55.46;94521.75;5062847;28;20375;-71
2022/02/24 05:33:15;;;;;;;7.85;1.80;;;;;;;2.03;55.29;94530.38;5063039;28;20024;-71
2022/02/24 05:35:41;;;;;;;8.25;1.85;;;;;;;2.02;55.23;94529.59;5062848;28;20013;-71
2022/02/24 05:38:06;;;;;;;7.50;2.08;;;;;;;2.03;55.41;94533.81;5062766;28;20219;-72
2022/02/24 05:40:31;;;;;;;8.50;1.63;;;;;;;1.94;55.41;94527.38;5062519;28;20092;-71
2022/02/24 05:42:58;;;;;;;5.85;1.80;;;;;;;1.86;55.38;94536.47;5062476;28;20020;-71
2022/02/24 05:45:24;;;;;;;6.22;2.17;;;;;;;1.86;55.70;94543.56;5062457;28;20028;-71
2022/02/24 05:47:49;;;;;;;4.85;1.70;;;;;;;1.82;55.57;94550.34;5061184;28;20099;-71
2022/02/24 05:50:15;;;;;;;5.00;2.22;;;;;;;1.79;55.73;94548.97;5062613;28;20075;-70
2022/02/24 05:52:40;;;;;;;7.65;1.88;;;;;;;1.65;55.91;94558.22;5062715;28;20021;-71
2022/02/24 05:55:06;;;;;;;10.68;2.40;;;;;;;1.76;55.81;94562.63;5062558;28;20325;-71
2022/02/24 05:57:32;;;;;;;8.07;2.55;;;;;;;1.82;55.72;94579.25;5061132;28;20020;-70
2022/02/24 05:59:57;;;;;;;9.75;2.47;;;;;;;1.91;55.77;94577.81;5062428;28;20020;-70
2022/02/24 06:02:23;;;;;;;6.35;2.05;;;;;;;1.88;55.39;94583.56;5062557;28;20044;-70
2022/02/24 06:04:48;;;;;;;4.82;2.30;;;;;;;1.91;55.34;94589.09;5062267;28;20246;-70
2022/02/24 06:07:14;;;;;;;9.15;1.80;;;;;;;1.93;55.22;94587.03;5062455;28;20021;-71
2022/02/24 06:09:39;;;;;;;6.20;2.30;;;;;;;2.02;55.28;94584.81;5062344;28;20048;-71
2022/02/24 06:12:05;;;;;;;9.00;1.80;;;;;;;2.14;55.43;94592.63;5061940;28;20264;-72
2022/02/24 06:14:30;;;;;;;7.95;2.00;;;;;;;2.24;54.82;94584.84;5061172;28;20020;-69
2022/02/24 06:16:57;;;;;;;6.28;2.30;;;;;;;2.30;54.55;94588.31;5062189;28;20020;-70
2022/02/24 06:19:23;;;;;;;5.90;2.53;;;;;;;2.32;53.99;94591.50;5062044;28;20211;-71
2022/02/24 06:21:51;;;;;;;7.57;1.92;;;;;;;2.46;54.09;94590.13;5062390;28;20066;-71
2022/02/24 06:24:16;;;;;;;9.32;2.20;;;;;;;2.58;54.28;94585.53;5062606;28;20093;-71
2022/02/24 06:26:41;;;;;;;9.18;2.10;;;;;;;2.57;53.11;94596.31;5066288;28;20315;-71
2022/02/24 06:29:07;;;;;;;6.28;2.10;;;;;;;2.59;54.15;94597.66;5066072;28;20033;-77
2022/02/24 06:31:34;;;;;;;4.72;1.80;;;;;;;2.76;54.72;94600.22;5066121;28;20028;-76
2022/02/24 06:34:01;;;;;;;5.57;2.17;;;;;;;2.88;52.40;94601.94;5066123;28;20056;-72
2022/02/24 06:36:27;;;;;;;4.40;2.05;;;;;;;2.68;52.48;94598.03;5067199;28;20013;-70
2022/02/24 06:38:53;;;;;;;5.53;2.15;;;;;;;2.80;52.84;94595.28;5065625;28;20021;-69
2022/02/24 06:41:20;;;;;;;5.13;1.88;;;;;;;3.04;51.76;94585.28;5065757;28;20021;-70
2022/02/24 06:43:45;;;;;;;7.30;2.00;;;;;;;3.13;51.04;94588.25;5065548;28;20048;-70
2022/02/24 06:46:11;;;;;;;5.00;1.80;;;;;;;3.10;50.56;94594.03;5065887;28;20314;-70
2022/02/24 06:48:36;;;;;;;35.53;4.65;;;;;;;3.13;51.93;94598.78;5065736;28;20024;-69
2022/02/24 06:51:02;;;;;;;9.00;2.40;;;;;;;3.11;51.02;94599.03;5065618;28;20084;-70
2022/02/24 06:53:27;;;;;;;10.27;2.33;;;;;;;3.11;50.91;94595.59;5065401;28;20264;-71
2022/02/24 06:55:53;;;;;;;4.03;1.83;;;;;;;2.99;50.85;94599.19;5065494;28;20028;-71
2022/02/24 06:58:18;;;;;;;6.38;2.10;;;;;;;3.00;50.77;94603.41;5065345;28;20025;-71
2022/02/24 07:00:44;;;;;;;9.60;2.85;;;;;;;3.05;50.70;94612.41;5065454;28;20051;-71
2022/02/24 07:03:09;;;;;;;25.67;3.20;;;;;;;3.14;50.78;94600.41;5065485;28;20021;-72
2022/02/24 07:05:35;;;;;;;3.15;2.00;;;;;;;3.22;51.06;94589.41;5065412;28;20017;-72
2022/02/24 07:08:02;;;;;;;13.75;2.05;;;;;;;3.26;50.50;94602.84;5064919;28;20051;-72
2022/02/24 07:10:28;;;;;;;4.97;1.77;;;;;;;3.32;50.48;94602.69;5065115;28;20205;-71
2022/02/24 07:12:53;;;;;;;12.85;2.70;;;;;;;3.31;49.66;94614.25;5064881;28;20048;-71
2022/02/24 07:15:19;;;;;;;3.72;1.70;;;;;;;3.28;49.61;94606.03;5065157;28;20033;-70
2022/02/24 07:17:46;;;;;;;7.43;1.85;;;;;;;3.20;49.71;94609.94;5065264;28;20204;-70
2022/02/24 07:20:14;;;;;;;4.20;1.85;;;;;;;3.09;50.36;94609.00;5064914;28;20032;-71
2022/02/24 07:22:39;;;;;;;7.30;2.25;;;;;;;3.18;50.28;94610.19;5065122;28;20029;-71
2022/02/24 07:25:06;;;;;;;8.10;2.10;;;;;;;3.27;50.02;94613.16;5064547;28;20098;-71
2022/02/24 07:27:32;;;;;;;4.80;1.83;;;;;;;3.25;50.11;94603.91;5063735;28;20033;-71
2022/02/24 07:29:58;;;;;;;8.20;1.90;;;;;;;3.29;48.91;94610.28;5064707;28;20029;-70
2022/02/24 07:32:25;;;;;;;5.53;2.30;;;;;;;3.25;49.54;94609.97;5064643;28;20105;-70
2022/02/24 07:34:50;;;;;;;4.47;1.95;;;;;;;3.28;49.82;94606.84;5065041;28;20025;-70
2022/02/24 07:37:15;;;;;;;8.20;2.72;;;;;;;3.38;49.90;94604.31;5063711;28;20257;-73
2022/02/24 07:39:41;;;;;;;8.18;2.75;;;;;;;3.50;48.82;94613.91;5065105;28;20077;-74
2022/02/24 07:42:06;;;;;;;9.85;2.40;;;;;;;3.51;49.53;94610.22;5064492;28;20032;-73
2022/02/24 07:44:32;;;;;;;10.15;2.65;;;;;;;3.56;49.47;94604.97;5064529;28;20228;-72
2022/02/24 07:46:57;;;;;;;11.45;2.08;;;;;;;3.64;47.94;94615.06;5064463;28;20342;-80
2022/02/24 07:49:24;;;;;;;17.48;3.33;;;;;;;3.67;48.19;94605.88;5063212;28;20036;-71
2022/02/24 07:51:51;;;;;;;24.67;6.28;;;;;;;3.76;49.03;94609.63;5064443;28;20032;-71
2022/02/24 07:54:18;;;;;;;11.82;2.28;;;;;;;3.84;47.79;94605.75;5064231;28;20043;-71
2022/02/24 07:56:44;;;;;;;9.52;2.80;;;;;;;3.88;48.34;94615.53;5064681;28;20055;-71
2022/02/24 07:59:09;;;;;;;14.02;2.75;;;;;;;3.91;47.47;94608.97;5064518;28;20029;-71
2022/02/24 08:01:35;;;;;;;6.93;2.30;;;;;;;3.96;47.96;94614.28;5064125;28;20077;-72
2022/02/24 08:04:00;;;;;;;4.72;2.05;;;;;;;4.04;47.19;94608.53;5064270;28;20052;-71
2022/02/24 08:06:26;;;;;;;6.70;1.95;;;;;;;4.05;47.09;94610.13;5063990;28;20025;-70
2022/02/24 08:08:52;;;;;;;5.45;2.60;;;;;;;4.12;47.65;94617.81;5064031;28;20020;-70
2022/02/24 08:11:17;;;;;;;16.42;2.20;;;;;;;4.10;47.85;94610.16;5063872;28;20044;-71
2022/02/24 08:13:43;;;;;;;10.13;2.47;;;;;;;4.13;46.91;94609.66;5064180;28;20025;-70
2022/02/24 08:16:09;;;;;;;8.30;2.50;;;;;;;4.23;47.05;94614.19;5063948;28;20043;-71
2022/02/24 08:18:34;;;;;;;25.25;3.53;;;;;;;4.37;46.07;94622.47;5063757;28;20031;-72
2022/02/24 08:21:00;;;;;;;6.30;2.28;;;;;;;4.47;45.99;94627.81;5063779;28;20124;-71
2022/02/24 08:23:25;;;;;;;9.38;2.53;;;;;;;4.58;46.07;94620.72;5063744;28;20025;-70
2022/02/24 08:25:51;;;;;;;8.52;2.58;;;;;;;4.68;45.70;94622.63;5062829;28;20049;-70
2022/02/24 08:28:16;;;;;;;4.90;2.08;;;;;;;4.68;45.18;94612.06;5063882;28;20223;-69
2022/02/24 08:30:41;;;;;;;5.78;2.20;;;;;;;4.72;45.33;94618.41;5063444;28;20035;-72
2022/02/24 08:33:07;;;;;;;4.43;1.90;;;;;;;4.59;45.43;94623.13;5062668;28;20099;-71
2022/02/24 08:35:33;;;;;;;5.68;1.98;;;;;;;4.56;45.87;94614.91;5063382;28;20084;-71
2022/02/24 08:38:00;;;;;;;4.85;2.42;;;;;;;4.58;46.04;94612.81;5063411;28;20028;-71
2022/02/24 08:40:25;;;;;;;6.25;2.70;;;;;;;4.60;45.55;94619.44;5063345;28;20311;-71
2022/02/24 08:42:51;;;;;;;4.40;2.13;;;;;;;4.53;45.98;94616.22;5063385;28;20121;-71
2022/02/24 08:45:21;;;;;;;10.85;2.45;;;;;;;4.59;45.68;94620.47;5063407;28;20025;-71
2022/02/24 08:47:46;;;;;;;7.22;2.25;;;;;;;4.62;45.70;94625.25;5063049;28;20374;-71
2022/02/24 08:50:13;;;;;;;5.22;2.78;;;;;;;4.57;45.93;94614.66;5063323;28;20120;-72
2022/02/24 08:52:38;;;;;;;8.45;2.70;;;;;;;4.69;45.79;94611.03;5063089;28;20024;-71
2022/02/24 08:55:05;;;;;;;17.60;3.70;;;;;;;4.78;45.25;94606.81;5062995;28;20088;-71
2022/02/24 08:57:31;;;;;;;10.05;2.67;;;;;;;4.80;45.29;94605.53;5063177;28;20016;-70
2022/02/24 08:59:57;;;;;;;11.77;3.50;;;;;;;4.85;45.32;94610.03;5063115;28;20216;-70
2022/02/24 09:02:22;;;;;;;13.05;4.07;;;;;;;4.92;45.16;94610.59;5062795;28;20021;-70
2022/02/24 09:04:47;;;;;;;15.00;3.20;;;;;;;4.98;44.89;94611.41;5062998;28;20029;-70
2022/02/24 09:07:13;;;;;;;9.32;2.88;;;;;;;5.01;44.88;94606.41;5063204;28;20165;-71
2022/02/24 09:09:38;;;;;;;14.43;3.28;;;;;;;5.09;45.94;94612.22;5062924;28;20333;-69
2022/02/24 09:12:04;;;;;;;8.93;3.78;;;;;;;5.24;46.03;94614.91;5062823;28;20040;-70
2022/02/24 09:14:30;;;;;;;7.15;1.90;;;;;;;5.49;45.67;94611.53;5062884;28;20052;-72
2022/02/24 09:16:56;;;;;;;5.38;2.25;;;;;;;5.66;45.25;94608.66;5062710;28;20017;-71
2022/02/24 09:19:21;;;;;;;7.93;1.95;;;;;;;5.80;44.93;94611.56;5062671;28;20207;-71
2022/02/24 09:21:47;;;;;;;6.25;2.35;;;;;;;5.82;45.02;94612.91;5062670;28;20027;-70
2022/02/24 09:24:13;;;;;;;6.20;1.85;;;;;;;5.89;45.09;94615.28;5062854;28;20242;-71
2022/02/24 09:26:39;;;;;;;15.30;1.55;;;;;;;6.03;44.92;94615.56;5062440;28;20067;-70
2022/02/24 09:29:05;;;;;;;5.03;2.17;;;;;;;6.21;44.95;94622.97;5062683;28;20199;-70
2022/02/24 09:31:32;;;;;;;9.57;1.70;;;;;;;6.39;46.08;94626.09;5062730;28;20090;-71
2022/02/24 09:33:57;;;;;;;4.95;1.63;;;;;;;6.57;47.00;94628.22;5062683;28;20028;-70
2022/02/24 09:36:23;;;;;;;2.83;1.05;;;;;;;6.73;47.34;94623.66;5062606;28;20282;-71
2022/02/24 09:38:48;;;;;;;6.18;1.08;;;;;;;6.86;46.38;94617.00;5062376;28;20341;-71
2022/02/24 09:41:14;;;;;;;42.55;5.03;;;;;;;6.94;46.27;94619.09;5062867;28;20421;-72
2022/02/24 09:43:41;;;;;;;20.05;3.88;;;;;;;7.02;45.95;94621.19;5062591;28;20027;-72
2022/02/24 09:46:10;;;;;;;5.38;1.50;;;;;;;7.15;46.27;94614.47;5062412;28;20079;-72
2022/02/24 09:48:38;;;;;;;3.83;1.80;;;;;;;7.06;46.88;94610.81;5062358;28;20021;-72
2022/02/24 09:51:08;;;;;;;3.67;1.15;;;;;;;7.03;46.92;94617.44;5062659;28;20025;-72
2022/02/24 09:53:37;;;;;;;4.32;1.17;;;;;;;7.13;46.72;94605.22;5062684;28;20327;-72
2022/02/24 09:56:03;;;;;;;2.67;1.52;;;;;;;7.26;46.52;94609.91;5062333;28;20025;-70
2022/02/24 09:58:31;;;;;;;5.85;1.65;;;;;;;7.40;46.09;94610.09;5062388;28;20338;-71
2022/02/24 10:00:59;;;;;;;66.07;7.00;;;;;;;7.42;45.13;94602.66;5065549;28;20025;-71
2022/02/24 10:03:33;;;;;;;3.47;1.55;;;;;;;7.38;44.71;94591.81;5066521;28;20039;-68
2022/02/24 10:06:00;;;;;;;4.72;1.30;;;;;;;7.34;44.99;94590.78;5066516;28;20036;-69
2022/02/24 10:08:39;;;;;;;2.80;1.30;;;;;;;7.37;45.68;94584.16;5066564;28;20222;-71
2022/02/24 10:11:20;;;;;;;6.00;1.58;;;;;;;7.40;45.95;94589.69;5066251;28;20036;-72
2022/02/24 10:13:59;;;;;;;3.72;1.90;;;;;;;7.53;45.57;94579.53;5066576;28;20048;-71
2022/02/24 10:16:25;;;;;;;5.72;1.40;;;;;;;7.52;45.45;94576.09;5066164;28;20044;-70
2022/02/24 10:18:51;;;;;;;3.17;1.50;;;;;;;7.55;45.16;94570.25;5065180;28;20025;-71
2022/02/24 10:21:18;;;;;;;8.07;1.73;;;;;;;7.71;45.21;94578.06;5066281;28;20338;-70
2022/02/24 10:23:44;;;;;;;2.42;1.38;;;;;;;7.85;45.23;94571.06;5066102;28;20031;-71
2022/02/24 10:26:14;;;;;;;3.03;1.20;;;;;;;7.97;44.50;94565.41;5066056;28;20021;-72
2022/02/24 10:28:51;;;;;;;1.58;0.93;;;;;;;7.97;43.40;94565.41;5065830;28;20184;-76
2022/02/24 10:31:19;;;;;;;4.93;1.45;;;;;;;7.99;43.98;94557.94;5066132;28;20021;-74
2022/02/24 10:33:50;;;;;;;2.13;1.02;;;;;;;7.95;42.94;94547.09;5066160;28;20070;-73
2022/02/24 10:36:15;;;;;;;1.77;0.95;;;;;;;7.93;44.26;94549.22;5065938;28;20033;-71
2022/02/24 10:38:43;;;;;;;9.50;1.35;;;;;;;7.92;44.31;94542.34;5066062;28;20063;-72
2022/02/24 10:41:08;;;;;;;5.95;1.15;;;;;;;7.97;44.10;94538.84;5066088;28;20021;-71
2022/02/24 10:43:36;;;;;;;1.63;0.93;;;;;;;8.07;43.57;94544.06;5065855;28;20047;-71
2022/02/24 10:46:13;;;;;;;4.15;0.93;;;;;;;8.26;43.47;94546.00;5065515;28;20025;-70
2022/02/24 10:48:51;;;;;;;5.18;1.23;;;;;;;8.42;42.82;94542.16;5065395;28;20023;-73
2022/02/24 10:51:34;;;;;;;4.10;1.70;;;;;;;8.41;41.38;94538.72;5065916;28;20056;-74
2022/02/24 10:54:09;;;;;;;6.63;1.20;;;;;;;8.32;41.77;94539.56;5065950;28;20033;-73
2022/02/24 10:56:39;;;;;;;11.40;1.80;;;;;;;8.26;42.58;94538.81;5065715;28;20104;-72
2022/02/24 10:59:05;;;;;;;9.98;2.20;;;;;;;8.31;42.82;94540.66;5065541;28;20048;-73
2022/02/24 11:01:30;;;;;;;4.97;1.60;;;;;;;8.42;42.17;94537.63;5065526;28;20082;-74
2022/02/24 11:03:58;;;;;;;1.75;1.00;;;;;;;8.50;41.52;94530.13;5065852;28;20024;-74
2022/02/24 11:06:26;;;;;;;4.07;1.58;;;;;;;8.59;41.01;94536.41;5065938;28;20196;-74
2022/02/24 11:08:53;;;;;;;3.67;1.30;;;;;;;8.61;40.64;94536.91;5065625;28;20074;-74
2022/02/24 11:11:21;;;;;;;2.08;1.33;;;;;;;8.72;41.16;94526.94;5065213;28;20029;-74
2022/02/24 11:13:48;;;;;;;4.55;2.03;;;;;;;8.81;40.98;94525.22;5065539;28;20067;-74
2022/02/24 11:16:14;;;;;;;5.53;1.92;;;;;;;8.82;41.11;94516.19;5065853;28;20021;-74
2022/02/24 11:18:40;;;;;;;2.63;1.30;;;;;;;8.86;40.24;94522.50;5065437;28;20214;-72
2022/02/24 11:21:11;;;;;;;7.57;1.42;;;;;;;8.84;39.11;94506.06;5065134;28;20088;-72
2022/02/24 11:23:38;;;;;;;4.45;1.30;;;;;;;8.75;39.18;94513.06;5065260;28;20053;-73
2022/02/24 11:26:22;;;;;;;2.67;1.30;;;;;;;8.69;39.89;94504.41;5065020;28;20306;-74
2022/02/24 11:29:11;;;;;;;4.30;1.40;;;;;;;8.66;40.77;94504.94;5065354;28;20249;-74
2022/02/24 11:31:42;;;;;;;4.90;1.20;;;;;;;8.84;39.70;94500.75;5054642;28;20070;-74
2022/02/24 11:34:08;;;;;;;4.55;2.00;;;;;;;8.90;39.96;94501.47;5064705;28;20658;-74